Time;durP1;ratioP1;P1;durP2;ratioP2;P2;SDS_P1;SDS_P2;PMS_P1;PMS_P2;Temp;Humidity;BMP_temperature;BMP_pressure;BME280_temperature;BME280_humidity;BME280_pressure;Samples;Min_cycle;Max_cycle;Signal;HPM_P1;HPM_P2
2023/03/23 00:02:41;;;;;;;;;;;;;;;;;;4967316;28;19914;-86
2023/03/23 00:05:28;;;;;;;;;;;;;;;;;;4980345;28;20475;-85
2023/03/23 00:08:15;;;;;;;;;;;;;;;;;;4972947;28;19921;-80
2023/03/23 00:11:01;;;;;;;;;;;;;;;;;;4984035;28;19918;-85
2023/03/23 00:13:51;;;;;;;;;;;;;;;;;;4986563;28;19929;-84
2023/03/23 00:16:39;;;;;;;;;;;;;;;;;;5001813;28;19925;-85
2023/03/23 00:19:26;;;;;;;;;;;;;;;;;;4992274;28;20063;-86
2023/03/23 00:22:12;;;;;;;;;;;;;;;;;;5003435;28;20194;-86
2023/03/23 00:24:59;;;;;;;;;;;;;;;;;;4997215;28;19918;-86
2023/03/23 00:27:45;;;;;;;;;;;;;;;;;;4998525;28;20296;-86
2023/03/23 00:30:33;;;;;;;;;;;;;;;;;;5002493;28;19918;-86
2023/03/23 00:33:20;;;;;;;;;;;;;;;;;;4992388;28;19917;-84
2023/03/23 00:36:08;;;;;;;;;;;;;;;;;;4988983;28;19913;-86
2023/03/23 00:38:57;;;;;;;;;;;;;;;;;;5001834;28;19930;-85
2023/03/23 00:41:44;;;;;;;;;;;;;;;;;;4993464;28;19917;-85
2023/03/23 00:44:31;;;;;;;;;;;;;;;;;;4988804;28;20292;-84
2023/03/23 00:47:17;;;;;;;;;;;;;;;;;;5004059;28;19925;-84
2023/03/23 00:50:05;;;;;;;;;;;;;;;;;;4993210;28;19957;-85
2023/03/23 00:52:52;;;;;;;;;;;;;;;;;;5003302;28;19924;-84
2023/03/23 00:55:39;;;;;;;;;;;;;;;;;;4982879;28;19956;-85
2023/03/23 00:58:25;;;;;;;;;;;;;;;;;;4997576;28;19921;-85
2023/03/23 01:01:12;;;;;;;;;;;;;;;;;;4998567;28;20452;-85
2023/03/23 01:04:00;;;;;;;;;;;;;;;;;;4995596;28;19925;-85
2023/03/23 01:06:46;;;;;;;;;;;;;;;;;;4997001;28;20257;-85
2023/03/23 01:09:33;;;;;;;;;;;;;;;;;;4999572;28;20413;-85
2023/03/23 01:12:19;;;;;;;;;;;;;;;;;;5001814;28;19924;-82
2023/03/23 01:15:06;;;;;;;;;;;;;;;;;;5003596;28;19930;-84
2023/03/23 01:17:52;;;;;;;;;;;;;;;;;;4991461;28;19917;-85
2023/03/23 01:20:39;;;;;;;;;;;;;;;;;;4984346;28;19922;-84
2023/03/23 01:23:26;;;;;;;;;;;;;;;;;;4998730;28;19921;-85
2023/03/23 01:26:12;;;;;;;;;;;;;;;;;;4998057;28;19921;-84
2023/03/23 01:29:01;;;;;;;;;;;;;;;;;;4987222;28;19918;-85
2023/03/23 01:31:47;;;;;;;;;;;;;;;;;;4998815;28;19952;-86
2023/03/23 01:34:34;;;;;;;;;;;;;;;;;;5007122;28;19924;-85
2023/03/23 01:37:25;;;;;;;;;;;;;;;;;;5003458;28;19914;-85
2023/03/23 01:40:12;;;;;;;;;;;;;;;;;;5006175;28;19932;-85
2023/03/23 01:42:58;;;;;;;;;;;;;;;;;;5007803;28;19918;-85
2023/03/23 01:45:45;;;;;;;;;;;;;;;;;;4999808;28;19914;-86
2023/03/23 01:48:31;;;;;;;;;;;;;;;;;;5003358;28;19914;-86
2023/03/23 01:51:18;;;;;;;;;;;;;;;;;;4994094;28;19924;-86
2023/03/23 01:54:04;;;;;;;;;;;;;;;;;;5006208;28;20000;-86
2023/03/23 01:56:51;;;;;;;;;;;;;;;;;;5003316;28;19917;-85
2023/03/23 01:59:37;;;;;;;;;;;;;;;;;;5006389;28;19933;-85
2023/03/23 02:02:24;;;;;;;;;;;;;;;;;;4990737;28;20579;-85
2023/03/23 02:05:10;;;;;;;;;;;;;;;;;;5009175;28;19917;-87
2023/03/23 02:07:58;;;;;;;;;;;;;;;;;;5001583;28;19914;-87
2023/03/23 02:10:45;;;;;;;;;;;;;;;;;;5006981;28;19924;-87
2023/03/23 02:13:31;;;;;;;;;;;;;;;;;;5010437;28;19921;-87
2023/03/23 02:16:18;;;;;;;;;;;;;;;;;;5011560;28;19922;-87
2023/03/23 02:19:04;;;;;;;;;;;;;;;;;;5012523;28;19948;-88
2023/03/23 02:21:51;;;;;;;;;;;;;;;;;;5011213;28;19923;-88
2023/03/23 02:24:37;;;;;;;;;;;;;;;;;;4997771;28;20720;-88
2023/03/23 02:27:24;;;;;;;;;;;;;;;;;;5001747;28;19914;-88
2023/03/23 02:30:11;;;;;;;;;;;;;;;;;;5000454;28;19917;-86
2023/03/23 02:32:58;;;;;;;;;;;;;;;;;;5004622;28;19917;-87
2023/03/23 02:35:45;;;;;;;;;;;;;;;;;;4999693;28;19917;-86
2023/03/23 02:38:31;;;;;;;;;;;;;;;;;;4998838;28;19921;-87
2023/03/23 02:41:18;;;;;;;;;;;;;;;;;;4986359;28;20655;-86
2023/03/23 02:44:04;;;;;;;;;;;;;;;;;;4985002;28;19925;-87
2023/03/23 02:46:51;;;;;;;;;;;;;;;;;;5000905;28;19917;-87
2023/03/23 02:49:37;;;;;;;;;;;;;;;;;;5004937;28;19917;-85
2023/03/23 02:52:24;;;;;;;;;;;;;;;;;;4993307;28;19921;-85
2023/03/23 02:55:11;;;;;;;;;;;;;;;;;;4997614;28;20294;-85
2023/03/23 02:57:57;;;;;;;;;;;;;;;;;;4999017;28;19918;-86
2023/03/23 03:00:44;;;;;;;;;;;;;;;;;;5000769;28;20396;-84
2023/03/23 03:03:30;;;;;;;;;;;;;;;;;;4991443;28;20401;-84
2023/03/23 03:06:17;;;;;;;;;;;;;;;;;;4991966;28;19918;-84
2023/03/23 03:09:03;;;;;;;;;;;;;;;;;;4997197;28;19923;-84
2023/03/23 03:11:50;;;;;;;;;;;;;;;;;;4999123;28;20474;-84
2023/03/23 03:14:36;;;;;;;;;;;;;;;;;;4999222;28;19930;-85
2023/03/23 03:17:23;;;;;;;;;;;;;;;;;;5005500;28;19918;-85
2023/03/23 03:20:10;;;;;;;;;;;;;;;;;;5005158;28;19931;-86
2023/03/23 03:22:57;;;;;;;;;;;;;;;;;;5005171;28;19918;-85
2023/03/23 03:25:47;;;;;;;;;;;;;;;;;;5004960;28;19925;-84
2023/03/23 03:28:33;;;;;;;;;;;;;;;;;;4994316;28;19924;-86
2023/03/23 03:31:20;;;;;;;;;;;;;;;;;;5000122;28;19917;-85
2023/03/23 03:34:06;;;;;;;;;;;;;;;;;;4997791;28;19917;-85
2023/03/23 03:36:53;;;;;;;;;;;;;;;;;;5005538;28;19924;-85
2023/03/23 03:39:39;;;;;;;;;;;;;;;;;;4991780;28;19930;-86
2023/03/23 03:42:26;;;;;;;;;;;;;;;;;;4998159;28;20349;-85
2023/03/23 03:45:13;;;;;;;;;;;;;;;;;;5000696;28;19917;-86
2023/03/23 03:48:01;;;;;;;;;;;;;;;;;;4999508;28;19913;-86
2023/03/23 03:50:47;;;;;;;;;;;;;;;;;;4991975;28;19918;-85
2023/03/23 03:53:34;;;;;;;;;;;;;;;;;;5003492;28;19944;-86
2023/03/23 03:56:21;;;;;;;;;;;;;;;;;;5004540;28;20344;-84
2023/03/23 03:59:09;;;;;;;;;;;;;;;;;;4995556;28;19925;-86
2023/03/23 04:01:55;;;;;;;;;;;;;;;;;;4991874;28;19941;-85
2023/03/23 04:04:43;;;;;;;;;;;;;;;;;;5002431;28;19925;-84
2023/03/23 04:07:29;;;;;;;;;;;;;;;;;;4996884;28;19913;-86
2023/03/23 04:10:15;;;;;;;;;;;;;;;;;;4998990;28;19917;-83
2023/03/23 04:13:04;;;;;;;;;;;;;;;;;;5003624;28;19917;-83
2023/03/23 04:15:50;;;;;;;;;;;;;;;;;;4995497;28;19929;-84
2023/03/23 04:18:38;;;;;;;;;;;;;;;;;;4997448;28;19924;-84
2023/03/23 04:21:28;;;;;;;;;;;;;;;;;;5003020;28;20012;-84
2023/03/23 04:24:14;;;;;;;;;;;;;;;;;;5004842;28;20296;-84
2023/03/23 04:27:01;;;;;;;;;;;;;;;;;;4990215;28;19914;-84
2023/03/23 04:29:48;;;;;;;;;;;;;;;;;;4994964;28;19923;-84
2023/03/23 04:32:35;;;;;;;;;;;;;;;;;;5003471;28;21011;-87
2023/03/23 04:35:22;;;;;;;;;;;;;;;;;;5003158;28;19922;-87
2023/03/23 04:38:08;;;;;;;;;;;;;;;;;;5005819;28;19924;-88
2023/03/23 04:40:55;;;;;;;;;;;;;;;;;;4979439;28;19933;-86
2023/03/23 04:43:42;;;;;;;;;;;;;;;;;;5002373;28;19940;-88
2023/03/23 04:46:30;;;;;;;;;;;;;;;;;;5000408;28;19917;-87
2023/03/23 04:49:20;;;;;;;;;;;;;;;;;;5002973;28;19922;-86
2023/03/23 04:52:07;;;;;;;;;;;;;;;;;;4999246;28;19925;-85
2023/03/23 04:54:55;;;;;;;;;;;;;;;;;;5000013;28;20277;-85
2023/03/23 04:57:42;;;;;;;;;;;;;;;;;;5002889;28;19920;-86
2023/03/23 05:00:28;;;;;;;;;;;;;;;;;;5001921;28;19941;-86
2023/03/23 05:03:16;;;;;;;;;;;;;;;;;;4999910;28;19924;-85
2023/03/23 05:06:02;;;;;;;;;;;;;;;;;;4985928;28;19913;-85
2023/03/23 05:08:49;;;;;;;;;;;;;;;;;;5006057;28;19917;-85
2023/03/23 05:11:35;;;;;;;;;;;;;;;;;;4999159;28;19922;-85
2023/03/23 05:14:22;;;;;;;;;;;;;;;;;;4995104;28;20395;-90
2023/03/23 05:17:09;;;;;;;;;;;;;;;;;;4999027;28;20299;-84
2023/03/23 05:19:56;;;;;;;;;;;;;;;;;;5001289;28;19934;-87
2023/03/23 05:22:44;;;;;;;;;;;;;;;;;;5005461;28;19917;-86
2023/03/23 05:25:32;;;;;;;;;;;;;;;;;;5004337;28;20297;-86
2023/03/23 05:28:18;;;;;;;;;;;;;;;;;;4987338;28;19925;-85
2023/03/23 05:31:05;;;;;;;;;;;;;;;;;;5005012;28;19918;-85
2023/03/23 05:33:52;;;;;;;;;;;;;;;;;;5001968;28;19918;-87
2023/03/23 05:36:38;;;;;;;;;;;;;;;;;;5005515;28;19923;-85
2023/03/23 05:39:25;;;;;;;;;;;;;;;;;;5002063;28;19922;-85
2023/03/23 05:42:12;;;;;;;;;;;;;;;;;;5001058;28;20285;-86
2023/03/23 05:44:58;;;;;;;;;;;;;;;;;;4999922;28;20365;-86
2023/03/23 05:47:45;;;;;;;;;;;;;;;;;;4997402;28;19918;-86
2023/03/23 05:50:31;;;;;;;;;;;;;;;;;;5004602;28;19924;-87
2023/03/23 05:53:18;;;;;;;;;;;;;;;;;;4992388;28;19943;-85
2023/03/23 05:56:04;;;;;;;;;;;;;;;;;;4990237;28;20300;-86
2023/03/23 05:58:52;;;;;;;;;;;;;;;;;;4993936;28;20373;-85
2023/03/23 06:01:39;;;;;;;;;;;;;;;;;;5005188;28;20587;-84
2023/03/23 06:04:26;;;;;;;;;;;;;;;;;;4996729;28;19928;-84
2023/03/23 06:07:14;;;;;;;;;;;;;;;;;;4991126;28;19917;-84
2023/03/23 06:10:01;;;;;;;;;;;;;;;;;;5005554;28;19921;-85
2023/03/23 06:12:47;;;;;;;;;;;;;;;;;;5002334;28;19924;-85
2023/03/23 06:15:33;;;;;;;;;;;;;;;;;;5005913;28;19929;-85
2023/03/23 06:18:20;;;;;;;;;;;;;;;;;;5005490;28;20403;-85
2023/03/23 06:21:07;;;;;;;;;;;;;;;;;;5005452;28;19929;-86
2023/03/23 06:23:55;;;;;;;;;;;;;;;;;;4998130;28;19917;-87
2023/03/23 06:26:42;;;;;;;;;;;;;;;;;;4995675;28;20419;-86
2023/03/23 06:29:29;;;;;;;;;;;;;;;;;;5003128;28;19918;-86
2023/03/23 06:32:15;;;;;;;;;;;;;;;;;;5003647;28;19943;-79
2023/03/23 06:35:02;;;;;;;;;;;;;;;;;;4998187;28;20374;-86
2023/03/23 06:37:49;;;;;;;;;;;;;;;;;;5005077;28;19918;-86
2023/03/23 06:40:38;;;;;;;;;;;;;;;;;;4998764;28;21051;-86
2023/03/23 06:43:24;;;;;;;;;;;;;;;;;;5002847;28;19925;-86
2023/03/23 06:46:11;;;;;;;;;;;;;;;;;;5002820;28;19928;-86
2023/03/23 06:48:57;;;;;;;;;;;;;;;;;;5004123;28;19918;-87
2023/03/23 06:51:44;;;;;;;;;;;;;;;;;;5002295;28;19928;-83
2023/03/23 06:54:30;;;;;;;;;;;;;;;;;;4997616;28;20312;-82
2023/03/23 06:57:17;;;;;;;;;;;;;;;;;;4992104;28;19929;-83
2023/03/23 07:00:13;;;;;;;;;;;;;;;;;;4998797;28;19934;-84
2023/03/23 07:02:59;;;;;;;;;;;;;;;;;;4994102;28;19921;-85
2023/03/23 07:05:46;;;;;;;;;;;;;;;;;;5000543;28;20288;-84
2023/03/23 07:08:32;;;;;;;;;;;;;;;;;;4989929;28;19928;-84
2023/03/23 07:11:19;;;;;;;;;;;;;;;;;;4973620;28;19926;-84
2023/03/23 07:14:05;;;;;;;;;;;;;;;;;;5000989;28;19926;-80
2023/03/23 07:16:53;;;;;;;;;;;;;;;;;;5000181;28;19917;-81
2023/03/23 07:19:40;;;;;;;;;;;;;;;;;;5002530;28;19936;-82
2023/03/23 07:22:26;;;;;;;;;;;;;;;;;;5002693;28;20403;-76
2023/03/23 07:25:13;;;;;;;;;;;;;;;;;;4995960;28;19933;-75
2023/03/23 07:28:00;;;;;;;;;;;;;;;;;;4987694;28;19921;-75
2023/03/23 07:30:46;;;;;;;;;;;;;;;;;;5000041;28;19921;-76
2023/03/23 07:33:33;;;;;;;;;;;;;;;;;;4999787;28;19918;-77
2023/03/23 07:36:20;;;;;;;;;;;;;;;;;;5003474;28;19913;-77
2023/03/23 07:39:06;;;;;;;;;;;;;;;;;;5004287;28;19922;-76
2023/03/23 07:41:53;;;;;;;;;;;;;;;;;;5004354;28;20050;-76
2023/03/23 07:44:39;;;;;;;;;;;;;;;;;;4999491;28;19928;-76
2023/03/23 07:47:26;;;;;;;;;;;;;;;;;;5001072;28;19917;-76
2023/03/23 07:50:13;;;;;;;;;;;;;;;;;;4999687;28;20487;-75
2023/03/23 07:53:00;;;;;;;;;;;;;;;;;;4996186;28;19918;-75
2023/03/23 07:55:47;;;;;;;;;;;;;;;;;;4997156;28;19929;-76
2023/03/23 07:58:33;;;;;;;;;;;;;;;;;;4998360;28;19928;-75
2023/03/23 08:01:20;;;;;;;;;;;;;;;;;;4997178;28;19936;-76
2023/03/23 08:04:07;;;;;;;;;;;;;;;;;;5000206;28;20454;-76
2023/03/23 08:06:53;;;;;;;;;;;;;;;;;;4998521;28;19921;-74
2023/03/23 08:09:40;;;;;;;;;;;;;;;;;;5002060;28;20314;-75
2023/03/23 08:12:27;;;;;;;;;;;;;;;;;;5000347;28;19932;-76
2023/03/23 08:15:14;;;;;;;;;;;;;;;;;;4998607;28;19936;-76
2023/03/23 08:18:01;;;;;;;;;;;;;;;;;;4998123;28;20390;-76
2023/03/23 08:20:48;;;;;;;;;;;;;;;;;;5000432;28;19929;-76
2023/03/23 08:23:36;;;;;;;;;;;;;;;;;;4999739;28;20383;-76
2023/03/23 08:26:23;;;;;;;;;;;;;;;;;;5002975;28;19928;-77
2023/03/23 08:29:09;;;;;;;;;;;;;;;;;;4998944;28;20316;-74
2023/03/23 08:31:55;;;;;;;;;;;;;;;;;;4999850;28;19913;-75
2023/03/23 08:34:42;;;;;;;;;;;;;;;;;;5000424;28;19937;-74
2023/03/23 08:37:29;;;;;;;;;;;;;;;;;;4995130;28;19921;-74
2023/03/23 08:40:19;;;;;;;;;;;;;;;;;;4999970;28;19939;-74
2023/03/23 08:43:05;;;;;;;;;;;;;;;;;;5002237;28;19917;-74
2023/03/23 08:45:52;;;;;;;;;;;;;;;;;;4997593;28;19921;-75
2023/03/23 08:48:38;;;;;;;;;;;;;;;;;;5000592;28;20389;-74
2023/03/23 08:51:26;;;;;;;;;;;;;;;;;;4998150;28;19917;-75
2023/03/23 08:54:12;;;;;;;;;;;;;;;;;;5007636;28;19943;-75
2023/03/23 08:57:00;;;;;;;;;;;;;;;;;;4986134;28;19932;-75
2023/03/23 08:59:46;;;;;;;;;;;;;;;;;;4998819;28;19936;-75
2023/03/23 09:02:34;;;;;;;;;;;;;;;;;;4997088;28;19918;-75
2023/03/23 09:05:21;;;;;;;;;;;;;;;;;;5002060;28;19928;-75
2023/03/23 09:08:07;;;;;;;;;;;;;;;;;;5002673;28;19922;-75
2023/03/23 09:10:54;;;;;;;;;;;;;;;;;;5000225;28;20688;-74
2023/03/23 09:13:40;;;;;;;;;;;;;;;;;;5001024;28;19924;-75
2023/03/23 09:16:27;;;;;;;;;;;;;;;;;;5002850;28;19930;-75
2023/03/23 09:19:15;;;;;;;;;;;;;;;;;;5001325;28;19921;-75
2023/03/23 09:22:02;;;;;;;;;;;;;;;;;;4998724;28;20420;-75
2023/03/23 09:24:49;;;;;;;;;;;;;;;;;;5003219;28;20313;-75
2023/03/23 09:27:39;;;;;;;;;;;;;;;;;;4996532;28;19925;-75
2023/03/23 09:30:29;;;;;;;;;;;;;;;;;;5001286;28;19918;-76
2023/03/23 09:33:15;;;;;;;;;;;;;;;;;;5004330;28;20028;-76
2023/03/23 09:36:02;;;;;;;;;;;;;;;;;;4987835;28;19943;-75
2023/03/23 09:38:48;;;;;;;;;;;;;;;;;;4999562;28;19921;-75
2023/03/23 09:41:35;;;;;;;;;;;;;;;;;;5000655;28;19925;-75
2023/03/23 09:44:22;;;;;;;;;;;;;;;;;;5000244;28;19932;-76
2023/03/23 09:47:09;;;;;;;;;;;;;;;;;;4997141;28;20490;-75
2023/03/23 09:49:56;;;;;;;;;;;;;;;;;;5003028;28;19917;-76
2023/03/23 09:52:43;;;;;;;;;;;;;;;;;;5003316;28;19944;-76
2023/03/23 09:55:29;;;;;;;;;;;;;;;;;;5003547;28;20526;-76
2023/03/23 09:58:16;;;;;;;;;;;;;;;;;;4999453;28;20282;-77
2023/03/23 10:01:02;;;;;;;;;;;;;;;;;;5005306;28;19936;-76
2023/03/23 10:03:49;;;;;;;;;;;;;;;;;;5004449;28;19921;-76
2023/03/23 10:06:36;;;;;;;;;;;;;;;;;;5001349;28;22256;-76
2023/03/23 10:09:23;;;;;;;;;;;;;;;;;;5001699;28;19929;-76
2023/03/23 10:12:10;;;;;;;;;;;;;;;;;;5004577;28;19929;-76
2023/03/23 10:14:58;;;;;;;;;;;;;;;;;;5005291;28;19936;-77
2023/03/23 10:17:44;;;;;;;;;;;;;;;;;;4991838;28;19921;-76
2023/03/23 10:20:31;;;;;;;;;;;;;;;;;;5006636;28;19936;-76
2023/03/23 10:23:17;;;;;;;;;;;;;;;;;;5006314;28;19933;-76
2023/03/23 10:26:04;;;;;;;;;;;;;;;;;;5001050;28;19922;-76
2023/03/23 10:28:52;;;;;;;;;;;;;;;;;;5004439;28;20432;-76
2023/03/23 10:31:38;;;;;;;;;;;;;;;;;;5003434;28;19922;-76
2023/03/23 10:34:25;;;;;;;;;;;;;;;;;;5001811;28;20399;-76
2023/03/23 10:37:11;;;;;;;;;;;;;;;;;;5002695;28;20337;-77
2023/03/23 10:40:03;;;;;;;;;;;;;;;;;;5002417;28;20020;-76
2023/03/23 10:42:49;;;;;;;;;;;;;;;;;;5004067;28;19934;-76
2023/03/23 10:45:36;;;;;;;;;;;;;;;;;;5002920;28;19932;-77
2023/03/23 10:48:23;;;;;;;;;;;;;;;;;;5003703;28;19929;-76
2023/03/23 10:51:10;;;;;;;;;;;;;;;;;;5003027;28;19929;-76
2023/03/23 10:53:57;;;;;;;;;;;;;;;;;;5004165;28;20286;-75
2023/03/23 10:56:44;;;;;;;;;;;;;;;;;;5001948;28;20397;-76
2023/03/23 10:59:33;;;;;;;;;;;;;;;;;;5002809;28;19918;-75
2023/03/23 11:02:19;;;;;;;;;;;;;;;;;;4999888;28;19917;-75
2023/03/23 11:05:07;;;;;;;;;;;;;;;;;;5002742;28;19922;-76
2023/03/23 11:07:53;;;;;;;;;;;;;;;;;;5004052;28;19928;-76
2023/03/23 11:10:40;;;;;;;;;;;;;;;;;;5005569;28;19921;-76
2023/03/23 11:13:27;;;;;;;;;;;;;;;;;;4991033;28;19926;-76
2023/03/23 11:16:14;;;;;;;;;;;;;;;;;;5004195;28;19925;-76
2023/03/23 11:19:01;;;;;;;;;;;;;;;;;;5004705;28;19928;-76
2023/03/23 11:21:47;;;;;;;;;;;;;;;;;;5002045;28;19933;-77
2023/03/23 11:24:34;;;;;;;;;;;;;;;;;;4998816;28;19918;-76
2023/03/23 11:27:20;;;;;;;;;;;;;;;;;;5000191;28;19925;-76
2023/03/23 11:30:07;;;;;;;;;;;;;;;;;;5000961;28;19927;-75
2023/03/23 11:32:53;;;;;;;;;;;;;;;;;;5001294;28;19922;-76
2023/03/23 11:35:40;;;;;;;;;;;;;;;;;;4999955;28;19922;-76
2023/03/23 11:38:27;;;;;;;;;;;;;;;;;;5002060;28;19924;-76
2023/03/23 11:41:14;;;;;;;;;;;;;;;;;;4997591;28;20376;-76
2023/03/23 11:44:01;;;;;;;;;;;;;;;;;;5004930;28;19922;-76
2023/03/23 11:46:47;;;;;;;;;;;;;;;;;;5004058;28;19928;-75
2023/03/23 11:49:34;;;;;;;;;;;;;;;;;;5004458;28;19924;-76
2023/03/23 11:52:21;;;;;;;;;;;;;;;;;;5003152;28;19955;-76
2023/03/23 11:55:07;;;;;;;;;;;;;;;;;;5001485;28;19936;-76
2023/03/23 11:57:54;;;;;;;;;;;;;;;;;;5004282;28;20428;-76
2023/03/23 12:00:40;;;;;;;;;;;;;;;;;;4999456;28;19936;-76
2023/03/23 12:03:27;;;;;;;;;;;;;;;;;;4999768;28;19943;-76
2023/03/23 12:06:13;;;;;;;;;;;;;;;;;;5001911;28;20396;-76
2023/03/23 12:09:00;;;;;;;;;;;;;;;;;;5001469;28;19928;-78
2023/03/23 12:11:46;;;;;;;;;;;;;;;;;;5003416;28;19917;-76
2023/03/23 12:14:33;;;;;;;;;;;;;;;;;;4998186;28;20245;-76
2023/03/23 12:17:19;;;;;;;;;;;;;;;;;;5001790;28;19918;-76
2023/03/23 12:20:10;;;;;;;;;;;;;;;;;;5002357;28;19932;-76
2023/03/23 12:22:57;;;;;;;;;;;;;;;;;;4993223;28;19943;-76
2023/03/23 12:25:43;;;;;;;;;;;;;;;;;;4996326;28;20275;-76
2023/03/23 12:28:30;;;;;;;;;;;;;;;;;;4996733;28;20530;-76
2023/03/23 12:31:16;;;;;;;;;;;;;;;;;;4996126;28;19926;-76
2023/03/23 12:34:03;;;;;;;;;;;;;;;;;;4997251;28;19948;-76
2023/03/23 12:36:49;;;;;;;;;;;;;;;;;;5001625;28;20395;-76
2023/03/23 12:39:36;;;;;;;;;;;;;;;;;;5000417;28;19932;-75
2023/03/23 12:42:22;;;;;;;;;;;;;;;;;;5000598;28;19929;-76
2023/03/23 12:45:09;;;;;;;;;;;;;;;;;;5000678;28;19952;-76
2023/03/23 12:47:56;;;;;;;;;;;;;;;;;;5001082;28;19941;-76
2023/03/23 12:50:42;;;;;;;;;;;;;;;;;;5001905;28;19925;-75
2023/03/23 12:53:29;;;;;;;;;;;;;;;;;;4995431;28;19932;-74
2023/03/23 12:56:16;;;;;;;;;;;;;;;;;;5000223;28;20300;-75
2023/03/23 12:59:02;;;;;;;;;;;;;;;;;;4996651;28;19926;-74
2023/03/23 13:01:49;;;;;;;;;;;;;;;;;;5000052;28;20093;-75
2023/03/23 13:04:36;;;;;;;;;;;;;;;;;;4998725;28;19921;-89
2023/03/23 13:07:22;;;;;;;;;;;;;;;;;;5004543;28;19991;-87
2023/03/23 13:10:09;;;;;;;;;;;;;;;;;;5002236;28;19949;-88
2023/03/23 13:12:55;;;;;;;;;;;;;;;;;;5003586;28;19928;-92
2023/03/23 13:15:43;;;;;;;;;;;;;;;;;;5014927;28;19941;-94
2023/03/23 13:18:30;;;;;;;;;;;;;;;;;;5008491;28;19921;-93
2023/03/23 13:21:18;;;;;;;;;;;;;;;;;;5011790;28;19925;-90
2023/03/23 13:24:04;;;;;;;;;;;;;;;;;;5012728;28;19913;-93
2023/03/23 13:26:51;;;;;;;;;;;;;;;;;;4995754;28;19919;-93
2023/03/23 13:29:38;;;;;;;;;;;;;;;;;;5015437;28;19925;-92
2023/03/23 13:32:25;;;;;;;;;;;;;;;;;;5012143;28;19920;-92
2023/03/23 13:35:11;;;;;;;;;;;;;;;;;;5010731;28;19922;-94
2023/03/23 13:37:58;;;;;;;;;;;;;;;;;;5010795;28;20001;-94
2023/03/23 13:40:44;;;;;;;;;;;;;;;;;;5006531;28;19929;-94
2023/03/23 13:43:31;;;;;;;;;;;;;;;;;;5001315;28;19913;-94
2023/03/23 13:46:18;;;;;;;;;;;;;;;;;;5013437;28;19932;-94
2023/03/23 13:49:04;;;;;;;;;;;;;;;;;;5017435;28;19944;-94
2023/03/23 13:51:51;;;;;;;;;;;;;;;;;;5005446;28;20504;-93
2023/03/23 13:54:37;;;;;;;;;;;;;;;;;;5007253;28;19924;-96
2023/03/23 13:57:23;;;;;;;;;;;;;;;;;;5014685;28;19929;-94
2023/03/23 14:00:12;;;;;;;;;;;;;;;;;;5020214;28;19918;-95
2023/03/23 14:02:58;;;;;;;;;;;;;;;;;;5013794;28;19921;-93
2023/03/23 14:05:45;;;;;;;;;;;;;;;;;;5017190;28;19920;-93
2023/03/23 14:08:31;;;;;;;;;;;;;;;;;;4994276;28;19924;-93
2023/03/23 14:11:18;;;;;;;;;;;;;;;;;;5001382;28;20589;-92
2023/03/23 14:14:04;;;;;;;;;;;;;;;;;;5015016;28;19925;-92
2023/03/23 14:16:54;;;;;;;;;;;;;;;;;;5006914;28;19953;-92
2023/03/23 14:19:41;;;;;;;;;;;;;;;;;;4998403;28;19920;-92
2023/03/23 14:22:27;;;;;;;;;;;;;;;;;;5010695;28;19926;-93
2023/03/23 14:25:14;;;;;;;;;;;;;;;;;;5017708;28;19913;-94
2023/03/23 14:28:00;;;;;;;;;;;;;;;;;;5026699;28;19913;-93
2023/03/23 14:30:46;;;;;;;;;;;;;;;;;;5021569;28;19924;-92
2023/03/23 14:33:33;;;;;;;;;;;;;;;;;;5022997;28;19928;-88
2023/03/23 14:36:19;;;;;;;;;;;;;;;;;;5005533;28;19918;-89
2023/03/23 14:39:06;;;;;;;;;;;;;;;;;;5010268;28;19922;-88
2023/03/23 14:41:53;;;;;;;;;;;;;;;;;;4991883;28;20569;-88
2023/03/23 14:44:40;;;;;;;;;;;;;;;;;;5012505;28;19952;-89
2023/03/23 14:47:26;;;;;;;;;;;;;;;;;;5003524;28;19917;-88
2023/03/23 14:50:13;;;;;;;;;;;;;;;;;;5006701;28;19921;-89
2023/03/23 14:52:59;;;;;;;;;;;;;;;;;;5003062;28;20640;-90
2023/03/23 14:55:46;;;;;;;;;;;;;;;;;;5005516;28;19921;-87
2023/03/23 14:58:32;;;;;;;;;;;;;;;;;;5002897;28;19918;-88
2023/03/23 15:01:19;;;;;;;;;;;;;;;;;;5008966;28;20397;-88
2023/03/23 15:04:06;;;;;;;;;;;;;;;;;;5004652;28;19927;-89
2023/03/23 15:06:53;;;;;;;;;;;;;;;;;;5003972;28;19957;-82
2023/03/23 15:09:39;;;;;;;;;;;;;;;;;;5001110;28;19928;-81
2023/03/23 15:12:25;;;;;;;;;;;;;;;;;;4996512;28;19921;-82
2023/03/23 15:15:12;;;;;;;;;;;;;;;;;;4999499;28;19936;-83
2023/03/23 15:17:58;;;;;;;;;;;;;;;;;;4989105;28;19933;-83
2023/03/23 15:20:45;;;;;;;;;;;;;;;;;;5000770;28;19921;-84
2023/03/23 15:23:32;;;;;;;;;;;;;;;;;;4997613;28;20388;-87
2023/03/23 15:26:18;;;;;;;;;;;;;;;;;;4999834;28;19932;-85
2023/03/23 15:29:05;;;;;;;;;;;;;;;;;;5003312;28;19918;-86
2023/03/23 15:31:51;;;;;;;;;;;;;;;;;;5001908;28;19966;-85
2023/03/23 15:34:39;;;;;;;;;;;;;;;;;;5003256;28;19921;-86
2023/03/23 15:37:26;;;;;;;;;;;;;;;;;;4982940;28;19913;-87
2023/03/23 15:40:12;;;;;;;;;;;;;;;;;;4989662;28;19917;-87
2023/03/23 15:42:59;;;;;;;;;;;;;;;;;;5001658;28;19933;-87
2023/03/23 15:45:46;;;;;;;;;;;;;;;;;;5001990;28;19928;-87
2023/03/23 15:48:32;;;;;;;;;;;;;;;;;;5000212;28;20253;-87
2023/03/23 15:51:19;;;;;;;;;;;;;;;;;;4998964;28;20512;-85
2023/03/23 15:54:05;;;;;;;;;;;;;;;;;;4993842;28;19936;-86
2023/03/23 15:56:52;;;;;;;;;;;;;;;;;;4993040;28;19936;-86
2023/03/23 15:59:38;;;;;;;;;;;;;;;;;;4995559;28;19929;-86
2023/03/23 16:02:25;;;;;;;;;;;;;;;;;;4998823;28;19929;-83
2023/03/23 16:05:11;;;;;;;;;;;;;;;;;;5003946;28;19959;-85
2023/03/23 16:07:58;;;;;;;;;;;;;;;;;;4999214;28;19928;-85
2023/03/23 16:10:44;;;;;;;;;;;;;;;;;;5004559;28;19925;-85
2023/03/23 16:13:31;;;;;;;;;;;;;;;;;;4998938;28;19939;-85
2023/03/23 16:16:17;;;;;;;;;;;;;;;;;;5000631;28;19930;-84
2023/03/23 16:19:05;;;;;;;;;;;;;;;;;;5001781;28;19921;-87
2023/03/23 16:21:51;;;;;;;;;;;;;;;;;;4989651;28;19929;-82
2023/03/23 16:24:38;;;;;;;;;;;;;;;;;;4988856;28;19921;-81
2023/03/23 16:27:25;;;;;;;;;;;;;;;;;;4995951;28;20415;-83
2023/03/23 16:30:12;;;;;;;;;;;;;;;;;;5002429;28;20325;-82
2023/03/23 16:32:58;;;;;;;;;;;;;;;;;;4999473;28;19932;-83
2023/03/23 16:35:45;;;;;;;;;;;;;;;;;;5003236;28;19914;-84
2023/03/23 16:38:31;;;;;;;;;;;;;;;;;;4987651;28;20322;-83
2023/03/23 16:41:18;;;;;;;;;;;;;;;;;;5001869;28;19929;-83
2023/03/23 16:44:05;;;;;;;;;;;;;;;;;;5001985;28;19929;-84
2023/03/23 16:46:51;;;;;;;;;;;;;;;;;;4980430;28;19917;-81
2023/03/23 16:49:38;;;;;;;;;;;;;;;;;;4999631;28;20407;-83
2023/03/23 16:52:27;;;;;;;;;;;;;;;;;;4999397;28;19925;-84
2023/03/23 16:55:14;;;;;;;;;;;;;;;;;;5006115;28;19928;-83
2023/03/23 16:58:00;;;;;;;;;;;;;;;;;;5002246;28;19927;-82
2023/03/23 17:00:46;;;;;;;;;;;;;;;;;;5000517;28;20377;-83
2023/03/23 17:03:33;;;;;;;;;;;;;;;;;;4997407;28;19917;-83
2023/03/23 17:06:19;;;;;;;;;;;;;;;;;;5003818;28;19921;-83
2023/03/23 17:09:06;;;;;;;;;;;;;;;;;;4997463;28;19936;-83
2023/03/23 17:11:53;;;;;;;;;;;;;;;;;;5005474;28;19925;-82
2023/03/23 17:14:39;;;;;;;;;;;;;;;;;;5003834;28;20455;-81
2023/03/23 17:17:26;;;;;;;;;;;;;;;;;;4992194;28;19922;-81
2023/03/23 17:20:12;;;;;;;;;;;;;;;;;;5002421;28;20424;-82
2023/03/23 17:23:01;;;;;;;;;;;;;;;;;;4998732;28;19925;-81
2023/03/23 17:25:49;;;;;;;;;;;;;;;;;;4994756;28;19924;-81
2023/03/23 17:28:35;;;;;;;;;;;;;;;;;;4992477;28;19937;-81
2023/03/23 17:31:22;;;;;;;;;;;;;;;;;;4996356;28;19922;-81
2023/03/23 17:34:08;;;;;;;;;;;;;;;;;;5007734;28;20397;-83
2023/03/23 17:36:55;;;;;;;;;;;;;;;;;;4998637;28;19921;-85
2023/03/23 17:39:42;;;;;;;;;;;;;;;;;;5006508;28;19922;-87
2023/03/23 17:42:28;;;;;;;;;;;;;;;;;;5005284;28;19932;-89
2023/03/23 17:45:15;;;;;;;;;;;;;;;;;;5011494;28;19922;-90
2023/03/23 17:48:06;;;;;;;;;;;;;;;;;;5006006;28;19920;-90
2023/03/23 17:50:52;;;;;;;;;;;;;;;;;;5006301;28;19921;-90
2023/03/23 17:53:39;;;;;;;;;;;;;;;;;;4997685;28;19928;-87
2023/03/23 17:56:25;;;;;;;;;;;;;;;;;;5007661;28;19924;-89
2023/03/23 17:59:12;;;;;;;;;;;;;;;;;;5008549;28;19960;-88
2023/03/23 18:01:58;;;;;;;;;;;;;;;;;;5000966;28;19929;-87
2023/03/23 18:04:45;;;;;;;;;;;;;;;;;;5003677;28;19933;-88
2023/03/23 18:07:32;;;;;;;;;;;;;;;;;;5005464;28;19923;-89
2023/03/23 18:10:18;;;;;;;;;;;;;;;;;;5000954;28;19921;-90
2023/03/23 18:13:05;;;;;;;;;;;;;;;;;;5003822;28;19921;-89
2023/03/23 18:15:51;;;;;;;;;;;;;;;;;;4999655;28;19925;-87
2023/03/23 18:18:37;;;;;;;;;;;;;;;;;;4993754;28;19917;-88
2023/03/23 18:21:25;;;;;;;;;;;;;;;;;;5014101;28;19941;-89
2023/03/23 18:24:12;;;;;;;;;;;;;;;;;;5003246;28;19914;-89
2023/03/23 18:26:59;;;;;;;;;;;;;;;;;;5000199;28;19917;-91
2023/03/23 18:29:45;;;;;;;;;;;;;;;;;;5010871;28;19917;-93
2023/03/23 18:32:32;;;;;;;;;;;;;;;;;;5005863;28;19924;-91
2023/03/23 18:35:18;;;;;;;;;;;;;;;;;;5007859;28;19921;-90
2023/03/23 18:38:05;;;;;;;;;;;;;;;;;;5012379;28;20689;-89
2023/03/23 18:40:52;;;;;;;;;;;;;;;;;;5006453;28;19932;-88
2023/03/23 18:43:38;;;;;;;;;;;;;;;;;;5006668;28;19922;-80
2023/03/23 18:46:25;;;;;;;;;;;;;;;;;;5002353;28;20495;-87
2023/03/23 18:49:11;;;;;;;;;;;;;;;;;;5002412;28;19937;-86
2023/03/23 18:51:58;;;;;;;;;;;;;;;;;;4996153;28;19924;-86
2023/03/23 18:54:45;;;;;;;;;;;;;;;;;;4992373;28;20337;-85
2023/03/23 18:57:31;;;;;;;;;;;;;;;;;;4994456;28;20605;-82
2023/03/23 19:00:18;;;;;;;;;;;;;;;;;;5004524;28;19921;-90